sensor_id;sensor_type;location;lat;lon;timestamp;P1;durP1;ratioP1;P2;durP2;ratioP2
21611;SDS011;47005;52.292;13.452;2024-02-26T00:01:40;21.60;;;13.53;;
21611;SDS011;47005;52.292;13.452;2024-02-26T00:04:06;21.47;;;11.27;;
21611;SDS011;47005;52.292;13.452;2024-02-26T00:06:32;13.87;;;10.10;;
21611;SDS011;47005;52.292;13.452;2024-02-26T00:08:57;18.07;;;10.77;;
21611;SDS011;47005;52.292;13.452;2024-02-26T00:11:23;13.17;;;8.57;;
21611;SDS011;47005;52.292;13.452;2024-02-26T00:13:49;17.07;;;8.63;;
21611;SDS011;47005;52.292;13.452;2024-02-26T00:16:14;15.77;;;10.10;;
21611;SDS011;47005;52.292;13.452;2024-02-26T00:18:40;11.27;;;7.70;;
21611;SDS011;47005;52.292;13.452;2024-02-26T00:21:06;12.70;;;8.17;;
21611;SDS011;47005;52.292;13.452;2024-02-26T00:23:31;10.73;;;6.70;;
21611;SDS011;47005;52.292;13.452;2024-02-26T00:25:57;8.70;;;6.53;;
21611;SDS011;47005;52.292;13.452;2024-02-26T00:28:23;8.03;;;6.40;;
21611;SDS011;47005;52.292;13.452;2024-02-26T00:30:49;10.60;;;7.07;;
21611;SDS011;47005;52.292;13.452;2024-02-26T00:33:16;9.60;;;6.27;;
21611;SDS011;47005;52.292;13.452;2024-02-26T00:35:42;8.77;;;6.53;;
21611;SDS011;47005;52.292;13.452;2024-02-26T00:38:08;11.87;;;6.80;;
21611;SDS011;47005;52.292;13.452;2024-02-26T00:40:33;10.90;;;7.17;;
21611;SDS011;47005;52.292;13.452;2024-02-26T00:42:59;9.23;;;5.93;;
21611;SDS011;47005;52.292;13.452;2024-02-26T00:45:25;9.63;;;6.83;;
21611;SDS011;47005;52.292;13.452;2024-02-26T00:47:50;8.83;;;5.87;;
21611;SDS011;47005;52.292;13.452;2024-02-26T00:50:16;8.63;;;5.57;;
21611;SDS011;47005;52.292;13.452;2024-02-26T00:52:42;10.80;;;6.10;;
21611;SDS011;47005;52.292;13.452;2024-02-26T00:55:07;9.27;;;6.47;;
21611;SDS011;47005;52.292;13.452;2024-02-26T00:57:33;8.53;;;5.73;;
21611;SDS011;47005;52.292;13.452;2024-02-26T00:59:59;8.13;;;5.83;;
21611;SDS011;47005;52.292;13.452;2024-02-26T01:02:25;11.70;;;6.20;;
21611;SDS011;47005;52.292;13.452;2024-02-26T01:04:51;10.37;;;6.77;;
21611;SDS011;47005;52.292;13.452;2024-02-26T01:07:19;7.67;;;6.33;;
21611;SDS011;47005;52.292;13.452;2024-02-26T01:09:44;11.53;;;7.23;;
21611;SDS011;47005;52.292;13.452;2024-02-26T01:12:10;10.93;;;7.67;;
21611;SDS011;47005;52.292;13.452;2024-02-26T01:14:36;10.10;;;6.43;;
21611;SDS011;47005;52.292;13.452;2024-02-26T01:17:01;8.30;;;5.73;;
21611;SDS011;47005;52.292;13.452;2024-02-26T01:19:27;8.00;;;6.10;;
21611;SDS011;47005;52.292;13.452;2024-02-26T01:21:53;9.53;;;5.73;;
21611;SDS011;47005;52.292;13.452;2024-02-26T01:24:19;6.70;;;4.43;;
21611;SDS011;47005;52.292;13.452;2024-02-26T01:26:44;8.53;;;6.00;;
21611;SDS011;47005;52.292;13.452;2024-02-26T01:29:10;11.07;;;5.97;;
21611;SDS011;47005;52.292;13.452;2024-02-26T01:31:35;7.40;;;5.47;;
21611;SDS011;47005;52.292;13.452;2024-02-26T01:34:01;8.73;;;5.70;;
21611;SDS011;47005;52.292;13.452;2024-02-26T01:36:27;8.53;;;5.20;;
21611;SDS011;47005;52.292;13.452;2024-02-26T01:38:52;10.70;;;5.13;;
21611;SDS011;47005;52.292;13.452;2024-02-26T01:41:18;9.30;;;5.70;;
21611;SDS011;47005;52.292;13.452;2024-02-26T01:43:44;10.47;;;5.47;;
21611;SDS011;47005;52.292;13.452;2024-02-26T01:46:11;9.00;;;5.10;;
21611;SDS011;47005;52.292;13.452;2024-02-26T01:48:39;8.73;;;5.73;;
21611;SDS011;47005;52.292;13.452;2024-02-26T01:51:08;8.47;;;5.43;;
21611;SDS011;47005;52.292;13.452;2024-02-26T01:53:35;6.73;;;4.63;;
21611;SDS011;47005;52.292;13.452;2024-02-26T01:56:01;8.50;;;5.53;;
21611;SDS011;47005;52.292;13.452;2024-02-26T01:58:27;8.23;;;4.87;;
21611;SDS011;47005;52.292;13.452;2024-02-26T02:00:55;10.10;;;5.07;;
21611;SDS011;47005;52.292;13.452;2024-02-26T02:03:21;7.43;;;5.30;;
21611;SDS011;47005;52.292;13.452;2024-02-26T02:05:47;7.47;;;4.83;;
21611;SDS011;47005;52.292;13.452;2024-02-26T02:08:13;7.40;;;5.73;;
21611;SDS011;47005;52.292;13.452;2024-02-26T02:10:39;8.83;;;4.90;;
21611;SDS011;47005;52.292;13.452;2024-02-26T02:13:09;9.53;;;5.63;;
21611;SDS011;47005;52.292;13.452;2024-02-26T02:15:35;6.07;;;4.30;;
21611;SDS011;47005;52.292;13.452;2024-02-26T02:18:00;8.57;;;5.13;;
21611;SDS011;47005;52.292;13.452;2024-02-26T02:20:31;7.27;;;5.17;;
21611;SDS011;47005;52.292;13.452;2024-02-26T02:23:00;8.67;;;4.63;;
21611;SDS011;47005;52.292;13.452;2024-02-26T02:25:26;9.47;;;5.00;;
21611;SDS011;47005;52.292;13.452;2024-02-26T02:27:52;6.13;;;4.37;;
21611;SDS011;47005;52.292;13.452;2024-02-26T02:30:19;7.67;;;4.63;;
21611;SDS011;47005;52.292;13.452;2024-02-26T02:32:48;7.00;;;4.57;;
21611;SDS011;47005;52.292;13.452;2024-02-26T02:35:14;8.93;;;5.00;;
21611;SDS011;47005;52.292;13.452;2024-02-26T02:37:40;8.97;;;5.00;;
21611;SDS011;47005;52.292;13.452;2024-02-26T02:40:06;8.63;;;5.23;;
21611;SDS011;47005;52.292;13.452;2024-02-26T02:42:32;8.43;;;5.87;;
21611;SDS011;47005;52.292;13.452;2024-02-26T02:44:57;6.43;;;3.87;;
21611;SDS011;47005;52.292;13.452;2024-02-26T02:47:23;6.47;;;4.60;;
21611;SDS011;47005;52.292;13.452;2024-02-26T02:49:48;6.70;;;4.90;;
21611;SDS011;47005;52.292;13.452;2024-02-26T02:52:14;6.03;;;4.10;;
21611;SDS011;47005;52.292;13.452;2024-02-26T02:54:40;11.10;;;4.43;;
21611;SDS011;47005;52.292;13.452;2024-02-26T02:57:07;7.50;;;4.27;;
21611;SDS011;47005;52.292;13.452;2024-02-26T02:59:33;7.40;;;4.77;;
21611;SDS011;47005;52.292;13.452;2024-02-26T03:01:59;6.83;;;3.83;;
21611;SDS011;47005;52.292;13.452;2024-02-26T03:04:25;7.27;;;4.53;;
21611;SDS011;47005;52.292;13.452;2024-02-26T03:06:50;5.90;;;4.00;;
21611;SDS011;47005;52.292;13.452;2024-02-26T03:09:16;9.40;;;4.83;;
21611;SDS011;47005;52.292;13.452;2024-02-26T03:11:41;6.70;;;4.53;;
21611;SDS011;47005;52.292;13.452;2024-02-26T03:14:07;8.43;;;5.60;;
21611;SDS011;47005;52.292;13.452;2024-02-26T03:16:34;6.90;;;4.77;;
21611;SDS011;47005;52.292;13.452;2024-02-26T03:19:00;6.53;;;4.17;;
21611;SDS011;47005;52.292;13.452;2024-02-26T03:21:26;8.27;;;4.87;;
21611;SDS011;47005;52.292;13.452;2024-02-26T03:23:52;7.07;;;4.60;;
21611;SDS011;47005;52.292;13.452;2024-02-26T03:26:18;6.07;;;4.40;;
21611;SDS011;47005;52.292;13.452;2024-02-26T03:28:44;6.07;;;4.43;;
21611;SDS011;47005;52.292;13.452;2024-02-26T03:31:09;12.70;;;4.40;;
21611;SDS011;47005;52.292;13.452;2024-02-26T03:33:38;9.50;;;5.33;;
21611;SDS011;47005;52.292;13.452;2024-02-26T03:36:04;8.23;;;5.60;;
21611;SDS011;47005;52.292;13.452;2024-02-26T03:38:30;11.50;;;6.43;;
21611;SDS011;47005;52.292;13.452;2024-02-26T03:40:55;12.23;;;6.63;;
21611;SDS011;47005;52.292;13.452;2024-02-26T03:43:21;9.73;;;5.97;;
21611;SDS011;47005;52.292;13.452;2024-02-26T03:45:47;13.97;;;7.20;;
21611;SDS011;47005;52.292;13.452;2024-02-26T03:48:12;9.27;;;6.70;;
21611;SDS011;47005;52.292;13.452;2024-02-26T03:50:38;7.20;;;4.50;;
21611;SDS011;47005;52.292;13.452;2024-02-26T03:53:04;10.27;;;5.13;;
21611;SDS011;47005;52.292;13.452;2024-02-26T03:55:29;8.40;;;4.57;;
21611;SDS011;47005;52.292;13.452;2024-02-26T03:57:55;7.40;;;4.33;;
21611;SDS011;47005;52.292;13.452;2024-02-26T04:00:21;14.63;;;4.93;;
21611;SDS011;47005;52.292;13.452;2024-02-26T04:02:47;9.10;;;5.23;;
21611;SDS011;47005;52.292;13.452;2024-02-26T04:05:13;9.43;;;5.63;;
21611;SDS011;47005;52.292;13.452;2024-02-26T04:07:39;11.30;;;6.23;;
21611;SDS011;47005;52.292;13.452;2024-02-26T04:10:09;8.70;;;6.33;;
21611;SDS011;47005;52.292;13.452;2024-02-26T04:12:35;11.37;;;6.33;;
21611;SDS011;47005;52.292;13.452;2024-02-26T04:15:03;9.23;;;5.33;;
21611;SDS011;47005;52.292;13.452;2024-02-26T04:17:29;11.00;;;5.53;;
21611;SDS011;47005;52.292;13.452;2024-02-26T04:19:55;7.13;;;5.27;;
21611;SDS011;47005;52.292;13.452;2024-02-26T04:22:20;8.50;;;5.10;;
21611;SDS011;47005;52.292;13.452;2024-02-26T04:24:46;8.07;;;5.17;;
21611;SDS011;47005;52.292;13.452;2024-02-26T04:27:11;6.67;;;4.80;;
21611;SDS011;47005;52.292;13.452;2024-02-26T04:29:37;21.17;;;11.40;;
21611;SDS011;47005;52.292;13.452;2024-02-26T04:32:03;10.10;;;6.33;;
21611;SDS011;47005;52.292;13.452;2024-02-26T04:34:28;10.80;;;5.90;;
21611;SDS011;47005;52.292;13.452;2024-02-26T04:36:54;14.83;;;9.13;;
21611;SDS011;47005;52.292;13.452;2024-02-26T04:39:20;15.70;;;11.03;;
21611;SDS011;47005;52.292;13.452;2024-02-26T04:41:46;18.77;;;8.43;;
21611;SDS011;47005;52.292;13.452;2024-02-26T04:44:11;8.53;;;5.80;;
21611;SDS011;47005;52.292;13.452;2024-02-26T04:46:37;8.10;;;5.17;;
21611;SDS011;47005;52.292;13.452;2024-02-26T04:49:03;21.77;;;13.03;;
21611;SDS011;47005;52.292;13.452;2024-02-26T04:51:28;17.43;;;10.17;;
21611;SDS011;47005;52.292;13.452;2024-02-26T04:53:54;9.20;;;6.37;;
21611;SDS011;47005;52.292;13.452;2024-02-26T04:56:22;7.20;;;4.77;;
21611;SDS011;47005;52.292;13.452;2024-02-26T04:58:48;7.27;;;4.73;;
21611;SDS011;47005;52.292;13.452;2024-02-26T05:01:14;7.03;;;4.70;;
21611;SDS011;47005;52.292;13.452;2024-02-26T05:03:42;7.27;;;4.87;;
21611;SDS011;47005;52.292;13.452;2024-02-26T05:06:08;7.57;;;5.40;;
21611;SDS011;47005;52.292;13.452;2024-02-26T05:08:34;20.57;;;12.43;;
21611;SDS011;47005;52.292;13.452;2024-02-26T05:11:01;48.77;;;24.53;;
21611;SDS011;47005;52.292;13.452;2024-02-26T05:13:28;32.23;;;19.17;;
21611;SDS011;47005;52.292;13.452;2024-02-26T05:15:54;12.93;;;6.93;;
21611;SDS011;47005;52.292;13.452;2024-02-26T05:18:19;7.30;;;5.57;;
21611;SDS011;47005;52.292;13.452;2024-02-26T05:20:45;9.60;;;6.27;;
21611;SDS011;47005;52.292;13.452;2024-02-26T05:23:11;11.83;;;7.80;;
21611;SDS011;47005;52.292;13.452;2024-02-26T05:25:37;13.70;;;7.40;;
21611;SDS011;47005;52.292;13.452;2024-02-26T05:28:02;30.87;;;16.77;;
21611;SDS011;47005;52.292;13.452;2024-02-26T05:30:28;22.90;;;14.17;;
21611;SDS011;47005;52.292;13.452;2024-02-26T05:32:54;19.13;;;12.23;;
21611;SDS011;47005;52.292;13.452;2024-02-26T05:35:19;13.43;;;9.13;;
21611;SDS011;47005;52.292;13.452;2024-02-26T05:37:45;11.97;;;7.37;;
21611;SDS011;47005;52.292;13.452;2024-02-26T05:40:11;9.80;;;7.23;;
21611;SDS011;47005;52.292;13.452;2024-02-26T05:42:37;9.30;;;5.97;;
21611;SDS011;47005;52.292;13.452;2024-02-26T05:45:02;7.80;;;5.17;;
21611;SDS011;47005;52.292;13.452;2024-02-26T05:47:32;9.80;;;5.73;;
21611;SDS011;47005;52.292;13.452;2024-02-26T05:49:58;7.93;;;5.30;;
21611;SDS011;47005;52.292;13.452;2024-02-26T05:52:25;6.67;;;4.40;;
21611;SDS011;47005;52.292;13.452;2024-02-26T05:54:52;10.90;;;4.90;;
21611;SDS011;47005;52.292;13.452;2024-02-26T05:57:18;7.07;;;4.73;;
21611;SDS011;47005;52.292;13.452;2024-02-26T05:59:43;8.63;;;4.40;;
21611;SDS011;47005;52.292;13.452;2024-02-26T06:02:09;11.43;;;5.23;;
21611;SDS011;47005;52.292;13.452;2024-02-26T06:04:35;5.90;;;4.03;;
21611;SDS011;47005;52.292;13.452;2024-02-26T06:07:00;10.20;;;4.50;;
21611;SDS011;47005;52.292;13.452;2024-02-26T06:09:26;17.43;;;12.80;;
21611;SDS011;47005;52.292;13.452;2024-02-26T06:11:51;10.53;;;9.03;;
21611;SDS011;47005;52.292;13.452;2024-02-26T06:14:17;7.57;;;5.40;;
21611;SDS011;47005;52.292;13.452;2024-02-26T06:16:43;7.03;;;4.47;;
21611;SDS011;47005;52.292;13.452;2024-02-26T06:19:09;7.80;;;4.37;;
21611;SDS011;47005;52.292;13.452;2024-02-26T06:21:35;8.00;;;5.30;;
21611;SDS011;47005;52.292;13.452;2024-02-26T06:24:01;10.13;;;4.73;;
21611;SDS011;47005;52.292;13.452;2024-02-26T06:26:27;10.87;;;4.60;;
21611;SDS011;47005;52.292;13.452;2024-02-26T06:28:55;9.17;;;5.37;;
21611;SDS011;47005;52.292;13.452;2024-02-26T06:31:21;10.27;;;5.60;;
21611;SDS011;47005;52.292;13.452;2024-02-26T06:33:48;8.70;;;5.30;;
21611;SDS011;47005;52.292;13.452;2024-02-26T06:36:15;6.93;;;5.53;;
21611;SDS011;47005;52.292;13.452;2024-02-26T06:38:41;8.63;;;5.50;;
21611;SDS011;47005;52.292;13.452;2024-02-26T06:41:13;7.20;;;5.37;;
21611;SDS011;47005;52.292;13.452;2024-02-26T06:43:38;8.83;;;6.27;;
21611;SDS011;47005;52.292;13.452;2024-02-26T06:46:05;17.47;;;7.20;;
21611;SDS011;47005;52.292;13.452;2024-02-26T06:48:32;8.17;;;5.63;;
21611;SDS011;47005;52.292;13.452;2024-02-26T06:50:57;9.00;;;6.20;;
21611;SDS011;47005;52.292;13.452;2024-02-26T06:53:23;10.63;;;6.57;;
21611;SDS011;47005;52.292;13.452;2024-02-26T06:55:48;8.90;;;6.27;;
21611;SDS011;47005;52.292;13.452;2024-02-26T06:58:15;14.83;;;6.93;;
21611;SDS011;47005;52.292;13.452;2024-02-26T07:00:40;10.30;;;6.60;;
21611;SDS011;47005;52.292;13.452;2024-02-26T07:03:06;11.23;;;7.10;;
21611;SDS011;47005;52.292;13.452;2024-02-26T07:05:32;10.30;;;7.17;;
21611;SDS011;47005;52.292;13.452;2024-02-26T07:07:57;9.17;;;6.43;;
21611;SDS011;47005;52.292;13.452;2024-02-26T07:10:23;10.60;;;6.97;;
21611;SDS011;47005;52.292;13.452;2024-02-26T07:12:48;13.23;;;8.47;;
21611;SDS011;47005;52.292;13.452;2024-02-26T07:15:14;12.40;;;7.80;;
21611;SDS011;47005;52.292;13.452;2024-02-26T07:17:40;12.27;;;7.93;;
21611;SDS011;47005;52.292;13.452;2024-02-26T07:20:12;11.90;;;7.73;;
21611;SDS011;47005;52.292;13.452;2024-02-26T07:22:38;10.70;;;7.23;;
21611;SDS011;47005;52.292;13.452;2024-02-26T07:25:04;13.23;;;8.03;;
21611;SDS011;47005;52.292;13.452;2024-02-26T07:27:32;10.57;;;8.20;;
21611;SDS011;47005;52.292;13.452;2024-02-26T07:29:58;17.03;;;7.83;;
21611;SDS011;47005;52.292;13.452;2024-02-26T07:32:24;13.53;;;8.60;;
21611;SDS011;47005;52.292;13.452;2024-02-26T07:34:49;17.50;;;8.67;;
21611;SDS011;47005;52.292;13.452;2024-02-26T07:37:15;16.80;;;9.70;;
21611;SDS011;47005;52.292;13.452;2024-02-26T07:39:40;15.10;;;8.23;;
21611;SDS011;47005;52.292;13.452;2024-02-26T07:42:06;13.77;;;9.43;;
21611;SDS011;47005;52.292;13.452;2024-02-26T07:44:32;13.83;;;8.93;;
21611;SDS011;47005;52.292;13.452;2024-02-26T07:46:58;12.53;;;8.57;;
21611;SDS011;47005;52.292;13.452;2024-02-26T07:49:24;12.80;;;9.07;;
21611;SDS011;47005;52.292;13.452;2024-02-26T07:51:50;20.80;;;12.20;;
21611;SDS011;47005;52.292;13.452;2024-02-26T07:54:15;21.97;;;14.73;;
21611;SDS011;47005;52.292;13.452;2024-02-26T07:56:41;14.30;;;10.07;;
21611;SDS011;47005;52.292;13.452;2024-02-26T07:59:07;13.30;;;9.63;;
21611;SDS011;47005;52.292;13.452;2024-02-26T08:01:32;15.47;;;10.23;;
21611;SDS011;47005;52.292;13.452;2024-02-26T08:03:59;14.17;;;8.80;;
21611;SDS011;47005;52.292;13.452;2024-02-26T08:06:25;14.57;;;9.20;;
21611;SDS011;47005;52.292;13.452;2024-02-26T08:08:50;15.07;;;10.13;;
21611;SDS011;47005;52.292;13.452;2024-02-26T08:11:16;10.53;;;8.03;;
21611;SDS011;47005;52.292;13.452;2024-02-26T08:13:42;17.90;;;9.60;;
21611;SDS011;47005;52.292;13.452;2024-02-26T08:16:07;18.27;;;10.13;;
21611;SDS011;47005;52.292;13.452;2024-02-26T08:18:33;13.00;;;9.70;;
21611;SDS011;47005;52.292;13.452;2024-02-26T08:20:58;16.40;;;9.60;;
21611;SDS011;47005;52.292;13.452;2024-02-26T08:23:24;13.43;;;9.23;;
21611;SDS011;47005;52.292;13.452;2024-02-26T08:25:51;13.67;;;9.17;;
21611;SDS011;47005;52.292;13.452;2024-02-26T08:28:16;13.97;;;9.30;;
21611;SDS011;47005;52.292;13.452;2024-02-26T08:30:43;13.07;;;9.53;;
21611;SDS011;47005;52.292;13.452;2024-02-26T08:33:09;16.20;;;10.10;;
21611;SDS011;47005;52.292;13.452;2024-02-26T08:35:35;13.47;;;9.20;;
21611;SDS011;47005;52.292;13.452;2024-02-26T08:38:01;15.57;;;10.07;;
21611;SDS011;47005;52.292;13.452;2024-02-26T08:40:27;16.50;;;11.07;;
21611;SDS011;47005;52.292;13.452;2024-02-26T08:42:53;17.27;;;9.67;;
21611;SDS011;47005;52.292;13.452;2024-02-26T08:45:20;14.87;;;9.87;;
21611;SDS011;47005;52.292;13.452;2024-02-26T08:47:46;15.07;;;10.13;;
21611;SDS011;47005;52.292;13.452;2024-02-26T08:50:11;15.57;;;11.00;;
21611;SDS011;47005;52.292;13.452;2024-02-26T08:52:38;13.07;;;9.73;;
21611;SDS011;47005;52.292;13.452;2024-02-26T08:55:03;14.37;;;9.90;;
21611;SDS011;47005;52.292;13.452;2024-02-26T08:57:31;20.10;;;12.30;;
21611;SDS011;47005;52.292;13.452;2024-02-26T08:59:58;16.33;;;11.40;;
21611;SDS011;47005;52.292;13.452;2024-02-26T09:02:25;16.33;;;10.63;;
21611;SDS011;47005;52.292;13.452;2024-02-26T09:04:51;13.50;;;10.33;;
21611;SDS011;47005;52.292;13.452;2024-02-26T09:07:19;15.83;;;11.07;;
21611;SDS011;47005;52.292;13.452;2024-02-26T09:09:45;15.00;;;10.53;;
21611;SDS011;47005;52.292;13.452;2024-02-26T09:12:10;18.60;;;11.37;;
21611;SDS011;47005;52.292;13.452;2024-02-26T09:14:36;15.83;;;11.80;;
21611;SDS011;47005;52.292;13.452;2024-02-26T09:17:02;14.33;;;10.57;;
21611;SDS011;47005;52.292;13.452;2024-02-26T09:19:27;18.07;;;10.03;;
21611;SDS011;47005;52.292;13.452;2024-02-26T09:21:53;19.13;;;11.73;;
21611;SDS011;47005;52.292;13.452;2024-02-26T09:24:22;14.77;;;10.40;;
21611;SDS011;47005;52.292;13.452;2024-02-26T09:26:48;20.30;;;11.63;;
21611;SDS011;47005;52.292;13.452;2024-02-26T09:29:14;17.53;;;11.77;;
21611;SDS011;47005;52.292;13.452;2024-02-26T09:31:40;16.23;;;11.50;;
21611;SDS011;47005;52.292;13.452;2024-02-26T09:34:06;17.37;;;11.60;;
21611;SDS011;47005;52.292;13.452;2024-02-26T09:36:32;13.47;;;10.13;;
21611;SDS011;47005;52.292;13.452;2024-02-26T09:39:01;15.20;;;10.20;;
21611;SDS011;47005;52.292;13.452;2024-02-26T09:41:28;19.53;;;12.40;;
21611;SDS011;47005;52.292;13.452;2024-02-26T09:43:57;17.73;;;11.57;;
21611;SDS011;47005;52.292;13.452;2024-02-26T09:46:27;17.30;;;12.47;;
21611;SDS011;47005;52.292;13.452;2024-02-26T09:48:53;19.63;;;12.20;;
21611;SDS011;47005;52.292;13.452;2024-02-26T09:51:19;21.03;;;13.37;;
21611;SDS011;47005;52.292;13.452;2024-02-26T09:53:48;18.90;;;11.47;;
21611;SDS011;47005;52.292;13.452;2024-02-26T09:56:17;21.20;;;12.57;;
21611;SDS011;47005;52.292;13.452;2024-02-26T09:58:43;14.77;;;11.10;;
21611;SDS011;47005;52.292;13.452;2024-02-26T10:01:13;14.23;;;11.27;;
21611;SDS011;47005;52.292;13.452;2024-02-26T10:03:43;20.90;;;12.13;;
21611;SDS011;47005;52.292;13.452;2024-02-26T10:06:10;18.93;;;11.93;;
21611;SDS011;47005;52.292;13.452;2024-02-26T10:08:36;15.07;;;10.53;;
21611;SDS011;47005;52.292;13.452;2024-02-26T10:11:04;16.93;;;11.83;;
21611;SDS011;47005;52.292;13.452;2024-02-26T10:13:31;19.50;;;12.17;;
21611;SDS011;47005;52.292;13.452;2024-02-26T10:15:57;18.87;;;13.57;;
21611;SDS011;47005;52.292;13.452;2024-02-26T10:18:23;18.10;;;13.60;;
21611;SDS011;47005;52.292;13.452;2024-02-26T10:20:59;17.70;;;12.33;;
21611;SDS011;47005;52.292;13.452;2024-02-26T10:23:28;19.03;;;12.70;;
21611;SDS011;47005;52.292;13.452;2024-02-26T10:25:54;18.40;;;12.10;;
21611;SDS011;47005;52.292;13.452;2024-02-26T10:28:20;19.63;;;10.87;;
21611;SDS011;47005;52.292;13.452;2024-02-26T10:30:46;18.43;;;12.33;;
21611;SDS011;47005;52.292;13.452;2024-02-26T10:33:12;16.23;;;11.13;;
21611;SDS011;47005;52.292;13.452;2024-02-26T10:35:47;15.80;;;11.80;;
21611;SDS011;47005;52.292;13.452;2024-02-26T10:38:12;19.13;;;10.80;;
21611;SDS011;47005;52.292;13.452;2024-02-26T10:40:38;16.73;;;10.37;;
21611;SDS011;47005;52.292;13.452;2024-02-26T10:43:04;14.67;;;8.73;;
21611;SDS011;47005;52.292;13.452;2024-02-26T10:45:29;12.73;;;8.43;;
21611;SDS011;47005;52.292;13.452;2024-02-26T10:47:57;13.83;;;7.77;;
21611;SDS011;47005;52.292;13.452;2024-02-26T10:50:23;11.87;;;8.17;;
21611;SDS011;47005;52.292;13.452;2024-02-26T10:52:49;12.87;;;7.67;;
21611;SDS011;47005;52.292;13.452;2024-02-26T10:55:16;15.10;;;8.13;;
21611;SDS011;47005;52.292;13.452;2024-02-26T10:57:43;9.40;;;7.10;;
21611;SDS011;47005;52.292;13.452;2024-02-26T11:00:11;11.00;;;7.43;;
21611;SDS011;47005;52.292;13.452;2024-02-26T11:02:40;12.23;;;7.83;;
21611;SDS011;47005;52.292;13.452;2024-02-26T11:05:06;10.17;;;7.80;;
21611;SDS011;47005;52.292;13.452;2024-02-26T11:07:36;10.67;;;6.17;;
21611;SDS011;47005;52.292;13.452;2024-02-26T11:10:03;13.63;;;5.47;;
21611;SDS011;47005;52.292;13.452;2024-02-26T11:12:30;10.77;;;5.33;;
21611;SDS011;47005;52.292;13.452;2024-02-26T11:14:57;9.50;;;6.53;;
21611;SDS011;47005;52.292;13.452;2024-02-26T11:17:27;8.07;;;5.73;;
21611;SDS011;47005;52.292;13.452;2024-02-26T11:19:56;10.40;;;6.60;;
21611;SDS011;47005;52.292;13.452;2024-02-26T11:22:23;8.57;;;5.07;;
21611;SDS011;47005;52.292;13.452;2024-02-26T11:24:56;11.80;;;6.17;;
21611;SDS011;47005;52.292;13.452;2024-02-26T11:27:32;10.50;;;5.53;;
21611;SDS011;47005;52.292;13.452;2024-02-26T11:30:11;10.83;;;6.43;;
21611;SDS011;47005;52.292;13.452;2024-02-26T11:32:38;8.53;;;5.80;;
21611;SDS011;47005;52.292;13.452;2024-02-26T11:35:04;9.53;;;5.37;;
21611;SDS011;47005;52.292;13.452;2024-02-26T11:37:32;8.77;;;5.47;;
21611;SDS011;47005;52.292;13.452;2024-02-26T11:39:59;9.20;;;5.73;;
21611;SDS011;47005;52.292;13.452;2024-02-26T11:42:26;8.20;;;5.17;;
21611;SDS011;47005;52.292;13.452;2024-02-26T11:44:52;8.73;;;5.60;;
21611;SDS011;47005;52.292;13.452;2024-02-26T11:47:18;7.93;;;4.77;;
21611;SDS011;47005;52.292;13.452;2024-02-26T11:49:45;10.47;;;5.00;;
21611;SDS011;47005;52.292;13.452;2024-02-26T11:52:12;8.37;;;5.57;;
21611;SDS011;47005;52.292;13.452;2024-02-26T11:54:56;7.77;;;5.43;;
21611;SDS011;47005;52.292;13.452;2024-02-26T12:02:45;7.57;;;4.67;;
21611;SDS011;47005;52.292;13.452;2024-02-26T12:05:19;8.73;;;4.60;;
21611;SDS011;47005;52.292;13.452;2024-02-26T12:07:49;7.53;;;5.03;;
21611;SDS011;47005;52.292;13.452;2024-02-26T12:10:23;9.67;;;4.77;;
21611;SDS011;47005;52.292;13.452;2024-02-26T12:13:03;7.10;;;4.93;;
21611;SDS011;47005;52.292;13.452;2024-02-26T12:15:41;7.37;;;4.60;;
21611;SDS011;47005;52.292;13.452;2024-02-26T12:18:17;6.57;;;4.30;;
21611;SDS011;47005;52.292;13.452;2024-02-26T12:20:43;8.23;;;5.37;;
21611;SDS011;47005;52.292;13.452;2024-02-26T12:23:09;7.10;;;4.80;;
21611;SDS011;47005;52.292;13.452;2024-02-26T12:25:40;7.77;;;4.90;;
21611;SDS011;47005;52.292;13.452;2024-02-26T12:28:06;7.33;;;4.57;;
21611;SDS011;47005;52.292;13.452;2024-02-26T12:30:32;6.67;;;4.37;;
21611;SDS011;47005;52.292;13.452;2024-02-26T12:32:58;7.60;;;4.27;;
21611;SDS011;47005;52.292;13.452;2024-02-26T12:35:25;5.93;;;4.13;;
21611;SDS011;47005;52.292;13.452;2024-02-26T12:37:55;6.57;;;4.03;;
21611;SDS011;47005;52.292;13.452;2024-02-26T12:40:21;6.80;;;4.80;;
21611;SDS011;47005;52.292;13.452;2024-02-26T12:42:47;7.93;;;4.83;;
21611;SDS011;47005;52.292;13.452;2024-02-26T12:45:13;13.00;;;5.40;;
21611;SDS011;47005;52.292;13.452;2024-02-26T12:47:44;8.43;;;4.27;;
21611;SDS011;47005;52.292;13.452;2024-02-26T12:50:14;8.90;;;4.10;;
21611;SDS011;47005;52.292;13.452;2024-02-26T12:52:45;8.33;;;4.33;;
21611;SDS011;47005;52.292;13.452;2024-02-26T12:55:14;6.97;;;3.90;;
21611;SDS011;47005;52.292;13.452;2024-02-26T12:57:41;9.50;;;4.03;;
21611;SDS011;47005;52.292;13.452;2024-02-26T13:00:14;6.90;;;3.90;;
21611;SDS011;47005;52.292;13.452;2024-02-26T13:02:42;6.63;;;3.87;;
21611;SDS011;47005;52.292;13.452;2024-02-26T13:05:10;9.63;;;4.37;;
21611;SDS011;47005;52.292;13.452;2024-02-26T13:07:44;5.90;;;3.73;;
21611;SDS011;47005;52.292;13.452;2024-02-26T13:10:12;5.47;;;3.90;;
21611;SDS011;47005;52.292;13.452;2024-02-26T13:12:42;6.53;;;4.07;;
21611;SDS011;47005;52.292;13.452;2024-02-26T13:15:09;7.80;;;4.23;;
21611;SDS011;47005;52.292;13.452;2024-02-26T13:17:40;9.30;;;5.10;;
21611;SDS011;47005;52.292;13.452;2024-02-26T13:20:07;9.67;;;5.03;;
21611;SDS011;47005;52.292;13.452;2024-02-26T13:22:35;7.13;;;4.17;;
21611;SDS011;47005;52.292;13.452;2024-02-26T13:25:01;8.63;;;4.17;;
21611;SDS011;47005;52.292;13.452;2024-02-26T13:27:29;8.10;;;4.60;;
21611;SDS011;47005;52.292;13.452;2024-02-26T13:30:02;9.80;;;5.13;;
21611;SDS011;47005;52.292;13.452;2024-02-26T13:32:31;6.27;;;4.37;;
21611;SDS011;47005;52.292;13.452;2024-02-26T13:35:04;7.27;;;5.17;;
21611;SDS011;47005;52.292;13.452;2024-02-26T13:37:34;8.87;;;5.40;;
21611;SDS011;47005;52.292;13.452;2024-02-26T13:40:00;8.23;;;5.17;;
21611;SDS011;47005;52.292;13.452;2024-02-26T13:42:33;9.73;;;5.33;;
21611;SDS011;47005;52.292;13.452;2024-02-26T13:45:00;7.27;;;5.20;;
21611;SDS011;47005;52.292;13.452;2024-02-26T13:47:26;9.07;;;5.93;;
21611;SDS011;47005;52.292;13.452;2024-02-26T13:49:51;9.70;;;6.00;;
21611;SDS011;47005;52.292;13.452;2024-02-26T13:52:17;12.83;;;6.53;;
21611;SDS011;47005;52.292;13.452;2024-02-26T13:54:45;14.20;;;6.53;;
21611;SDS011;47005;52.292;13.452;2024-02-26T13:57:11;10.73;;;6.80;;
21611;SDS011;47005;52.292;13.452;2024-02-26T13:59:36;10.23;;;6.47;;
21611;SDS011;47005;52.292;13.452;2024-02-26T14:02:02;10.40;;;6.20;;
21611;SDS011;47005;52.292;13.452;2024-02-26T14:04:28;9.30;;;6.63;;
21611;SDS011;47005;52.292;13.452;2024-02-26T14:06:54;11.57;;;7.73;;
21611;SDS011;47005;52.292;13.452;2024-02-26T14:09:19;12.47;;;8.03;;
21611;SDS011;47005;52.292;13.452;2024-02-26T14:11:45;12.20;;;7.93;;
21611;SDS011;47005;52.292;13.452;2024-02-26T14:14:11;11.97;;;8.23;;
21611;SDS011;47005;52.292;13.452;2024-02-26T14:16:36;15.30;;;9.73;;
21611;SDS011;47005;52.292;13.452;2024-02-26T14:19:02;14.80;;;9.47;;
21611;SDS011;47005;52.292;13.452;2024-02-26T14:21:28;11.80;;;8.63;;
21611;SDS011;47005;52.292;13.452;2024-02-26T14:23:57;14.43;;;10.10;;
21611;SDS011;47005;52.292;13.452;2024-02-26T14:26:23;13.90;;;9.80;;
21611;SDS011;47005;52.292;13.452;2024-02-26T14:28:48;15.53;;;10.53;;